Time;durP1;ratioP1;P1;durP2;ratioP2;P2;SDS_P1;SDS_P2;PMS_P1;PMS_P2;Temp;Humidity;BMP_temperature;BMP_pressure;BME280_temperature;BME280_humidity;BME280_pressure;Samples;Min_cycle;Max_cycle;Signal;HPM_P1;HPM_P2
2023/06/27 00:00:11;;;;;;;1999.90;999.90;;;;;;;20.61;100.00;97754.13;4976817;28;20019;-75
2023/06/27 00:02:37;;;;;;;1999.90;999.90;;;;;;;20.71;100.00;97759.88;4994273;28;20030;-75
2023/06/27 00:05:03;;;;;;;1999.90;999.90;;;;;;;20.78;100.00;97764.78;4994296;28;20030;-76
2023/06/27 00:07:28;;;;;;;1999.90;999.90;;;;;;;20.79;100.00;97766.41;4994354;28;20034;-75
2023/06/27 00:09:55;;;;;;;1999.90;999.90;;;;;;;20.71;100.00;97756.28;4994213;28;20054;-75
2023/06/27 00:12:20;;;;;;;1999.90;999.90;;;;;;;20.63;100.00;97760.09;4994226;28;20395;-75
2023/06/27 00:14:46;;;;;;;1999.90;999.90;;;;;;;20.78;100.00;97757.25;4994198;28;20035;-75
2023/06/27 00:17:12;;;;;;;1999.90;999.90;;;;;;;20.77;100.00;97763.97;4976453;28;20440;-75
2023/06/27 00:19:40;;;;;;;1999.90;999.90;;;;;;;20.75;100.00;97759.94;4994889;28;20022;-75
2023/06/27 00:22:09;;;;;;;1999.90;999.90;;;;;;;20.71;100.00;97765.44;4995210;28;20027;-76
2023/06/27 00:24:38;;;;;;;1999.90;999.90;;;;;;;20.63;100.00;97765.66;4997848;28;20030;-77
2023/06/27 00:27:04;;;;;;;1999.90;999.90;;;;;;;20.50;100.00;97753.88;4998856;28;20030;-75
2023/06/27 00:29:29;;;;;;;1999.90;999.90;;;;;;;20.55;100.00;97758.34;4994130;28;20034;-76
2023/06/27 00:31:55;;;;;;;1999.90;999.90;;;;;;;20.50;100.00;97756.66;4993871;28;20038;-75
2023/06/27 00:34:21;;;;;;;1999.90;999.90;;;;;;;20.56;100.00;97769.09;4977099;28;20133;-76
2023/06/27 00:36:46;;;;;;;1999.90;999.90;;;;;;;20.53;100.00;97769.00;4995561;28;20129;-77
2023/06/27 00:39:11;;;;;;;1999.90;999.90;;;;;;;20.47;100.00;97751.84;4994818;28;20026;-75
2023/06/27 00:41:37;;;;;;;1999.90;999.90;;;;;;;20.46;100.00;97757.75;4993786;28;20489;-75
2023/06/27 00:44:08;;;;;;;1999.90;999.90;;;;;;;20.42;100.00;97752.13;4976194;28;20050;-75
2023/06/27 00:46:37;;;;;;;1999.90;999.90;;;;;;;20.38;100.00;97761.53;4993561;28;20032;-75
2023/06/27 00:49:05;;;;;;;1999.90;999.90;;;;;;;20.24;100.00;97751.69;4993612;28;20085;-75
2023/06/27 00:51:32;;;;;;;1999.90;999.90;;;;;;;20.21;100.00;97762.72;4993691;28;20033;-76
2023/06/27 00:53:57;;;;;;;1999.90;999.90;;;;;;;20.22;100.00;97767.13;4992554;28;20030;-74
2023/06/27 00:56:24;;;;;;;1999.90;999.90;;;;;;;20.21;100.00;97768.28;4993916;28;20042;-75
2023/06/27 00:58:49;;;;;;;1999.90;999.90;;;;;;;20.30;100.00;97761.38;4993437;28;20058;-76
2023/06/27 01:01:15;;;;;;;1999.90;999.90;;;;;;;20.26;100.00;97754.97;4971712;28;20487;-77
2023/06/27 01:03:40;;;;;;;1999.90;999.90;;;;;;;20.27;100.00;97755.75;4973016;28;20037;-76
2023/06/27 01:06:14;;;;;;;1999.90;999.90;;;;;;;20.17;100.00;97759.88;4973779;28;20127;-76
2023/06/27 01:08:50;;;;;;;1999.90;999.90;;;;;;;19.99;100.00;97746.75;4973863;28;20042;-75
2023/06/27 01:11:21;;;;;;;1999.90;999.90;;;;;;;19.95;100.00;97755.00;4973641;28;20118;-75
2023/06/27 01:13:51;;;;;;;1999.90;999.90;;;;;;;19.98;100.00;97754.28;4973746;28;20065;-75
2023/06/27 01:16:21;;;;;;;1999.90;999.90;;;;;;;20.01;100.00;97749.97;4956368;28;20428;-75
2023/06/27 01:18:48;;;;;;;1999.90;999.90;;;;;;;19.92;100.00;97747.41;4973582;28;20461;-76
2023/06/27 01:21:16;;;;;;;1999.90;999.90;;;;;;;19.85;100.00;97741.69;4972344;28;20030;-76
2023/06/27 01:23:49;;;;;;;1999.90;999.90;;;;;;;19.85;100.00;97743.66;4973286;28;20027;-75
2023/06/27 01:26:16;;;;;;;1999.90;999.90;;;;;;;19.77;100.00;97745.44;4973855;28;20081;-75
2023/06/27 01:28:41;;;;;;;1999.90;999.90;;;;;;;19.79;100.00;97743.13;4973480;28;20447;-78
2023/06/27 01:31:07;;;;;;;1999.90;999.90;;;;;;;19.79;100.00;97740.34;4973823;28;20039;-75
2023/06/27 01:33:41;;;;;;;1999.90;999.90;;;;;;;19.75;100.00;97737.50;4980715;28;20031;-75
2023/06/27 01:36:13;;;;;;;1999.90;999.90;;;;;;;19.78;100.00;97735.97;4992648;28;20041;-76
2023/06/27 01:38:47;;;;;;;1999.90;999.90;;;;;;;19.66;100.00;97741.63;4993143;28;20487;-75
2023/06/27 01:41:17;;;;;;;1999.90;999.90;;;;;;;19.60;100.00;97734.72;4993585;28;20100;-76
2023/06/27 01:43:44;;;;;;;1999.90;999.90;;;;;;;19.63;100.00;97734.81;4993455;28;20030;-76
2023/06/27 01:46:10;;;;;;;1999.90;999.90;;;;;;;19.68;100.00;97747.59;4993836;28;20022;-75
2023/06/27 01:48:38;;;;;;;1999.90;999.90;;;;;;;19.50;100.00;97738.84;4995911;28;20493;-75
2023/06/27 01:51:07;;;;;;;1999.90;999.90;;;;;;;19.43;100.00;97737.84;4995477;28;20045;-76
2023/06/27 01:53:34;;;;;;;1999.90;999.90;;;;;;;19.37;100.00;97717.06;4994330;28;20460;-75
2023/06/27 01:55:59;;;;;;;1999.90;999.90;;;;;;;19.37;100.00;97728.16;4992627;28;20023;-75
2023/06/27 01:58:24;;;;;;;1999.90;999.90;;;;;;;19.32;100.00;97726.47;4975199;28;20033;-75
2023/06/27 02:00:50;;;;;;;1999.90;999.90;;;;;;;19.35;100.00;97727.72;4992148;28;20053;-75
2023/06/27 02:03:15;;;;;;;1999.90;999.90;;;;;;;19.35;100.00;97731.31;4992189;28;20025;-76
2023/06/27 02:05:41;;;;;;;1999.90;999.90;;;;;;;19.35;100.00;97736.06;4991803;28;20105;-76
2023/06/27 02:08:06;;;;;;;1999.90;999.90;;;;;;;19.33;100.00;97722.53;4992282;28;20019;-77
2023/06/27 02:10:31;;;;;;;1999.90;999.90;;;;;;;19.40;100.00;97727.47;4991950;28;20360;-76
2023/06/27 02:12:59;;;;;;;1999.90;999.90;;;;;;;19.36;100.00;97726.56;4992055;28;20109;-76
2023/06/27 02:15:24;;;;;;;1999.90;999.90;;;;;;;19.23;100.00;97717.53;4991922;28;20046;-74
2023/06/27 02:17:49;;;;;;;1999.90;999.90;;;;;;;19.18;100.00;97717.78;4991868;28;20113;-74
2023/06/27 02:20:14;;;;;;;1999.90;999.90;;;;;;;19.20;100.00;97718.25;4991900;28;20022;-76
2023/06/27 02:22:40;;;;;;;1999.90;999.90;;;;;;;19.27;100.00;97730.31;4991802;28;20375;-75
2023/06/27 02:25:05;;;;;;;1999.90;999.90;;;;;;;19.22;100.00;97719.50;4992104;28;20463;-76
2023/06/27 02:27:31;;;;;;;1999.90;999.90;;;;;;;19.29;100.00;97732.75;4993181;28;20117;-76
2023/06/27 02:29:56;;;;;;;1999.90;999.90;;;;;;;19.25;100.00;97731.84;5006483;28;20505;-75
2023/06/27 02:32:21;;;;;;;1999.90;999.90;;;;;;;19.18;100.00;97720.56;5011554;28;20116;-76
2023/06/27 02:34:47;;;;;;;1999.90;999.90;;;;;;;19.10;100.00;97708.50;4984484;28;20031;-76
2023/06/27 02:37:12;;;;;;;1999.90;999.90;;;;;;;19.00;100.00;97709.00;4987863;28;20047;-75
2023/06/27 02:39:37;;;;;;;1999.90;999.90;;;;;;;19.10;100.00;97699.38;4976383;28;20043;-76
2023/06/27 02:42:03;;;;;;;1999.90;999.90;;;;;;;19.15;100.00;97697.13;4988335;28;20050;-77
2023/06/27 02:44:28;;;;;;;1999.90;999.90;;;;;;;19.17;100.00;97703.09;4997228;28;20038;-76
2023/06/27 02:46:54;;;;;;;1999.90;999.90;;;;;;;19.15;100.00;97713.75;5010713;28;20363;-76
2023/06/27 02:49:19;;;;;;;1999.90;999.90;;;;;;;19.10;100.00;97711.28;5010637;28;20021;-77
2023/06/27 02:51:44;;;;;;;1999.90;999.90;;;;;;;19.12;100.00;97717.25;4992850;28;20041;-76
2023/06/27 02:54:10;;;;;;;1999.90;999.90;;;;;;;19.07;100.00;97708.41;4994596;28;20117;-76
2023/06/27 02:56:35;;;;;;;1999.90;999.90;;;;;;;19.12;100.00;97717.25;4991243;28;20113;-75
2023/06/27 02:59:00;;;;;;;1999.90;999.90;;;;;;;19.09;100.00;97711.59;4991071;28;20022;-76
2023/06/27 03:01:26;;;;;;;1999.90;999.90;;;;;;;18.94;100.00;97696.59;4973009;28;20513;-76
2023/06/27 03:03:51;;;;;;;1999.90;999.90;;;;;;;18.93;100.00;97711.59;4973134;28;20018;-75
2023/06/27 03:06:19;;;;;;;1999.90;999.90;;;;;;;18.99;100.00;97707.41;4990911;28;20030;-75
2023/06/27 03:08:44;;;;;;;1999.90;999.90;;;;;;;19.00;100.00;97711.78;4990863;28;20088;-74
2023/06/27 03:11:10;;;;;;;1999.90;999.90;;;;;;;18.94;100.00;97724.31;4991062;28;20035;-75
2023/06/27 03:13:35;;;;;;;1999.90;999.90;;;;;;;18.90;100.00;97725.34;4991047;28;20034;-75
2023/06/27 03:16:00;;;;;;;1999.90;999.90;;;;;;;18.96;100.00;97733.06;4992917;28;20034;-75
2023/06/27 03:18:26;;;;;;;1999.90;999.90;;;;;;;18.93;100.00;97724.66;4994673;28;20018;-75
2023/06/27 03:20:51;;;;;;;1999.90;999.90;;;;;;;18.92;100.00;97729.38;4982248;28;20038;-75
2023/06/27 03:23:16;;;;;;;1999.90;999.90;;;;;;;18.87;100.00;97721.34;4960870;28;20483;-74
2023/06/27 03:25:43;;;;;;;1999.90;999.90;;;;;;;18.91;100.00;97715.88;4997428;28;20034;-75
2023/06/27 03:28:08;;;;;;;1999.90;999.90;;;;;;;19.02;100.00;97720.53;5002973;28;20038;-75
2023/06/27 03:30:34;;;;;;;1999.90;999.90;;;;;;;18.90;100.00;97723.41;4999751;28;20022;-75
2023/06/27 03:32:59;;;;;;;1999.90;999.90;;;;;;;18.93;100.00;97717.13;4997188;28;20026;-75
2023/06/27 03:35:24;;;;;;;1999.90;999.90;;;;;;;19.04;100.00;97712.69;4995838;28;20045;-77
2023/06/27 03:37:51;;;;;;;1999.90;999.90;;;;;;;19.22;100.00;97722.28;4977585;28;20101;-75
2023/06/27 03:40:17;;;;;;;1999.90;999.90;;;;;;;19.25;100.00;97727.09;4977531;28;20026;-75
2023/06/27 03:42:42;;;;;;;1999.90;999.90;;;;;;;19.45;100.00;97738.31;4977758;28;20026;-75
2023/06/27 03:45:08;;;;;;;1999.90;999.90;;;;;;;19.66;100.00;97736.88;4977594;28;20491;-75
2023/06/27 03:47:34;;;;;;;1999.90;999.90;;;;;;;19.93;100.00;97735.13;4977546;28;20027;-76
2023/06/27 03:49:59;;;;;;;1999.90;999.90;;;;;;;20.10;100.00;97745.03;4977473;28;20039;-76
2023/06/27 03:52:25;;;;;;;1999.90;999.90;;;;;;;20.19;100.00;97731.75;4977502;28;20387;-76
2023/06/27 03:54:50;;;;;;;1999.90;999.90;;;;;;;20.46;100.00;97741.88;4977572;28;20364;-76
2023/06/27 03:57:15;;;;;;;1999.90;999.90;;;;;;;20.70;100.00;97741.59;4961376;28;20042;-76
2023/06/27 03:59:41;;;;;;;1999.90;999.90;;;;;;;20.48;100.00;97738.75;4979795;28;20391;-77
2023/06/27 04:02:06;;;;;;;1999.90;999.90;;;;;;;20.58;100.00;97736.16;4961718;28;20054;-74
2023/06/27 04:04:31;;;;;;;1999.90;999.90;;;;;;;20.43;100.00;97733.47;4977375;28;20035;-75
2023/06/27 04:06:57;;;;;;;1999.90;999.90;;;;;;;20.23;100.00;97733.44;4977551;28;20063;-76
2023/06/27 04:09:22;;;;;;;1999.90;999.90;;;;;;;20.15;100.00;97737.22;4977334;28;20430;-75
2023/06/27 04:11:47;;;;;;;1999.90;999.90;;;;;;;20.15;100.00;97737.22;4977347;28;20030;-76
2023/06/27 04:14:17;;;;;;;1999.90;999.90;;;;;;;20.15;100.00;97731.66;4996894;28;20022;-77
2023/06/27 04:16:45;;;;;;;1999.90;999.90;;;;;;;20.31;100.00;97734.41;4996735;28;20037;-76
2023/06/27 04:19:10;;;;;;;1999.90;999.90;;;;;;;21.13;100.00;97742.44;4996861;28;20037;-76
2023/06/27 04:21:36;;;;;;;1999.90;999.90;;;;;;;21.79;100.00;97742.78;4996873;28;20010;-75
2023/06/27 04:24:01;;;;;;;1999.90;999.90;;;;;;;22.17;100.00;97752.16;4980779;28;20034;-71
2023/06/27 04:26:27;;;;;;;1999.90;999.90;;;;;;;22.01;100.00;97738.38;4996664;28;20030;-71
2023/06/27 04:28:52;;;;;;;1999.90;999.90;;;;;;;21.83;100.00;97743.63;4994069;28;20030;-71
2023/06/27 04:31:19;;;;;;;1999.90;999.90;;;;;;;21.46;100.00;97745.41;4993444;28;20038;-72
2023/06/27 04:33:44;;;;;;;1999.90;999.90;;;;;;;20.32;100.00;97738.00;4993905;28;20049;-73
2023/06/27 04:36:10;;;;;;;1999.90;999.90;;;;;;;20.33;100.00;97739.63;4995015;28;20352;-71
2023/06/27 04:38:39;;;;;;;1999.90;999.90;;;;;;;19.89;100.00;97739.78;4993743;28;20563;-72
2023/06/27 04:41:05;;;;;;;1999.90;999.90;;;;;;;20.19;100.00;97738.09;4993465;28;20030;-71
2023/06/27 04:43:32;;;;;;;1999.90;999.90;;;;;;;20.38;100.00;97744.88;4993560;28;20033;-71
2023/06/27 04:46:00;;;;;;;1999.90;999.90;;;;;;;20.53;100.00;97753.16;4993700;28;20043;-71
2023/06/27 04:48:27;;;;;;;1999.90;999.90;;;;;;;20.65;100.00;97760.53;4993322;28;20108;-71
2023/06/27 04:50:53;;;;;;;1999.90;999.90;;;;;;;20.59;100.00;97753.66;4993805;28;20026;-71
2023/06/27 04:53:19;;;;;;;1999.90;999.90;;;;;;;20.65;100.00;97757.75;5010864;28;20037;-71
2023/06/27 04:55:46;;;;;;;1999.90;999.90;;;;;;;20.36;100.00;97753.56;4995804;28;20053;-71
2023/06/27 04:58:11;;;;;;;1999.90;999.90;;;;;;;20.43;100.00;97755.69;5013261;28;20026;-71
2023/06/27 05:00:36;;;;;;;1999.90;999.90;;;;;;;20.52;100.00;97753.50;5012603;28;20489;-71
2023/06/27 05:03:02;;;;;;;1999.90;999.90;;;;;;;20.17;100.00;97761.88;5012678;28;20084;-71
2023/06/27 05:05:33;;;;;;;1999.90;999.90;;;;;;;20.52;100.00;97756.28;5012523;28;20026;-71
2023/06/27 05:08:00;;;;;;;1999.90;999.90;;;;;;;19.89;100.00;97744.53;4995526;28;20069;-71
2023/06/27 05:10:25;;;;;;;1999.90;999.90;;;;;;;19.93;100.00;97750.97;5012212;28;20076;-71
2023/06/27 05:12:51;;;;;;;1999.90;999.90;;;;;;;20.06;100.00;97746.91;5003742;28;20022;-72
2023/06/27 05:15:16;;;;;;;1999.90;999.90;;;;;;;20.27;100.00;97747.41;4992738;28;20084;-71
2023/06/27 05:17:51;;;;;;;1999.90;999.90;;;;;;;20.46;100.00;97746.63;4992743;28;20443;-71
2023/06/27 05:20:17;;;;;;;1999.90;999.90;;;;;;;20.68;100.00;97743.13;4993001;28;20083;-71
2023/06/27 05:22:43;;;;;;;1999.90;999.90;;;;;;;20.88;100.00;97735.56;4992800;28;20053;-71
2023/06/27 05:25:08;;;;;;;1999.90;999.90;;;;;;;20.93;100.00;97738.84;4992290;28;20037;-71
2023/06/27 05:27:34;;;;;;;1999.90;999.90;;;;;;;21.41;100.00;97747.69;4992957;28;20073;-71
2023/06/27 05:29:59;;;;;;;1999.90;999.90;;;;;;;21.75;100.00;97758.63;4992589;28;20403;-71
2023/06/27 05:32:24;;;;;;;1999.90;999.90;;;;;;;21.90;100.00;97759.69;4992560;28;20041;-71
2023/06/27 05:34:49;;;;;;;1999.90;999.90;;;;;;;21.85;100.00;97757.19;4992623;28;20054;-71
2023/06/27 05:37:15;;;;;;;1999.90;999.90;;;;;;;21.64;100.00;97756.88;4995033;28;20050;-71
2023/06/27 05:39:40;;;;;;;1999.90;999.90;;;;;;;21.75;100.00;97755.03;4994924;28;20027;-72
2023/06/27 05:42:05;;;;;;;1999.90;999.90;;;;;;;21.78;100.00;97757.06;4992408;28;20045;-72
2023/06/27 05:44:31;;;;;;;1999.90;999.90;;;;;;;21.86;100.00;97758.81;4992348;28;20026;-72
2023/06/27 05:46:56;;;;;;;1999.90;999.90;;;;;;;22.42;100.00;97758.88;4992242;28;20053;-71
2023/06/27 05:49:21;;;;;;;1999.90;999.90;;;;;;;22.55;100.00;97763.03;4992040;28;20495;-72
2023/06/27 05:51:47;;;;;;;1999.90;999.90;;;;;;;22.24;100.00;97764.19;4992274;28;20117;-71
2023/06/27 05:54:12;;;;;;;1999.90;999.90;;;;;;;22.36;100.00;97746.44;4991961;28;20026;-70
2023/06/27 05:56:38;;;;;;;1999.90;999.90;;;;;;;22.57;100.00;97751.50;4992106;28;20030;-71
2023/06/27 05:59:03;;;;;;;1999.90;999.90;;;;;;;22.43;100.00;97760.47;4992351;28;20061;-72
2023/06/27 06:01:29;;;;;;;1999.90;999.90;;;;;;;22.71;100.00;97760.84;4992009;28;20084;-71
2023/06/27 06:03:54;;;;;;;1999.90;999.90;;;;;;;22.68;100.00;97764.41;4991412;28;20513;-71
2023/06/27 06:06:20;;;;;;;1999.90;999.90;;;;;;;22.70;100.00;97759.28;4998255;28;20026;-72
2023/06/27 06:08:45;;;;;;;1999.90;999.90;;;;;;;23.10;100.00;97749.34;5000678;28;20084;-72
2023/06/27 06:11:10;;;;;;;1999.90;999.90;;;;;;;22.55;100.00;97751.88;5000155;28;20157;-71
2023/06/27 06:13:36;;;;;;;1999.90;999.90;;;;;;;22.89;100.00;97761.09;5002112;28;20025;-71
2023/06/27 06:16:01;;;;;;;1999.90;999.90;;;;;;;22.92;100.00;97757.53;5003622;28;20027;-71
2023/06/27 06:18:27;;;;;;;1999.90;999.90;;;;;;;23.04;100.00;97757.28;5002359;28;20544;-73
2023/06/27 06:20:52;;;;;;;1999.90;999.90;;;;;;;23.31;100.00;97755.16;5001668;28;20030;-72
2023/06/27 06:23:17;;;;;;;1999.90;999.90;;;;;;;23.31;100.00;97774.69;5008545;28;20033;-71
2023/06/27 06:25:43;;;;;;;1999.90;999.90;;;;;;;23.07;100.00;97781.63;5006173;28;20475;-72
2023/06/27 06:28:08;;;;;;;1999.90;999.90;;;;;;;23.08;100.00;97788.81;5007547;28;20030;-72
2023/06/27 06:30:33;;;;;;;1999.90;999.90;;;;;;;22.83;100.00;97787.72;4994586;28;20068;-72
2023/06/27 06:32:58;;;;;;;1999.90;999.90;;;;;;;22.58;100.00;97794.94;5009453;28;20554;-75
2023/06/27 06:35:24;;;;;;;1999.90;999.90;;;;;;;22.25;100.00;97787.28;5007286;28;20040;-71
2023/06/27 06:37:49;;;;;;;1999.90;999.90;;;;;;;22.03;100.00;97779.78;5011509;28;20060;-80
2023/06/27 06:40:14;;;;;;;1999.90;999.90;;;;;;;21.86;100.00;97767.94;5011576;28;20124;-79
2023/06/27 06:42:40;;;;;;;1999.90;999.90;;;;;;;21.50;100.00;97757.41;5011712;28;20064;-76
2023/06/27 06:45:07;;;;;;;1999.90;999.90;;;;;;;20.99;100.00;97742.94;5011380;28;20124;-75
2023/06/27 06:47:33;;;;;;;1999.90;999.90;;;;;;;20.73;100.00;97740.88;5011458;28;20030;-75
2023/06/27 06:49:58;;;;;;;1999.90;999.90;;;;;;;20.46;100.00;97752.19;5010830;28;20041;-76
2023/06/27 06:52:23;;;;;;;1999.90;999.90;;;;;;;20.57;100.00;97761.56;5010728;28;20105;-79
2023/06/27 06:54:49;;;;;;;1999.90;999.90;;;;;;;20.59;100.00;97750.88;5011483;28;20173;-76
2023/06/27 06:57:14;;;;;;;1999.90;999.90;;;;;;;19.99;100.00;97747.56;5011329;28;20152;-74
2023/06/27 06:59:40;;;;;;;1999.90;999.90;;;;;;;19.70;100.00;97732.19;5011570;28;20807;-74
2023/06/27 07:02:06;;;;;;;1999.90;999.90;;;;;;;19.92;100.00;97747.41;5010859;28;20492;-75
2023/06/27 07:04:31;;;;;;;1999.90;999.90;;;;;;;20.41;100.00;97767.19;5010837;28;20033;-75
2023/06/27 07:06:57;;;;;;;1999.90;999.90;;;;;;;21.03;100.00;97771.63;5010854;28;20109;-74
2023/06/27 07:09:22;;;;;;;1999.90;999.90;;;;;;;21.36;100.00;97771.09;5010749;28;20067;-74
2023/06/27 07:11:50;;;;;;;1999.90;999.90;;;;;;;21.67;100.00;97767.25;5010500;28;20022;-74
2023/06/27 07:14:17;;;;;;;1999.90;999.90;;;;;;;21.82;100.00;97763.53;5010798;28;20196;-74
2023/06/27 07:16:43;;;;;;;1999.90;999.90;;;;;;;22.55;100.00;97767.81;5010661;28;20041;-74
2023/06/27 07:19:09;;;;;;;1999.90;999.90;;;;;;;22.32;100.00;97765.09;5010890;28;20026;-75
2023/06/27 07:21:34;;;;;;;1999.90;999.90;;;;;;;22.76;100.00;97784.84;5010684;28;20026;-74
2023/06/27 07:24:00;;;;;;;1999.90;999.90;;;;;;;22.89;100.00;97766.66;5010664;28;20544;-75
2023/06/27 07:26:26;;;;;;;1999.90;999.90;;;;;;;22.72;100.00;97781.19;4994566;28;20433;-75
2023/06/27 07:28:51;;;;;;;1999.90;999.90;;;;;;;22.71;100.00;97776.81;5013364;28;20045;-76
2023/06/27 07:31:16;;;;;;;1999.90;999.90;;;;;;;23.15;100.00;97783.31;5011253;28;20467;-75
2023/06/27 07:33:41;;;;;;;1999.90;999.90;;;;;;;22.70;100.00;97767.66;5010644;28;20041;-75
2023/06/27 07:36:07;;;;;;;1999.90;999.90;;;;;;;22.89;100.00;97763.88;5010399;28;20049;-76
2023/06/27 07:38:32;;;;;;;1999.90;999.90;;;;;;;22.37;100.00;97773.94;5010674;28;20033;-74
2023/06/27 07:40:58;;;;;;;1999.90;999.90;;;;;;;21.95;100.00;97767.75;5010546;28;20134;-74
2023/06/27 07:43:23;;;;;;;1999.90;999.90;;;;;;;22.33;100.00;97780.66;5010760;28;20025;-74
2023/06/27 07:45:49;;;;;;;1999.90;999.90;;;;;;;22.64;100.00;97793.41;5014344;28;20112;-75
2023/06/27 07:48:14;;;;;;;1999.90;999.90;;;;;;;22.73;100.00;97780.03;5017078;28;20034;-74
2023/06/27 07:50:39;;;;;;;1999.90;999.90;;;;;;;22.87;100.00;97783.78;5010527;28;20453;-75
2023/06/27 07:53:05;;;;;;;1999.90;999.90;;;;;;;22.88;100.00;97781.81;5010445;28;20471;-75
2023/06/27 07:55:30;;;;;;;1999.90;999.90;;;;;;;22.75;100.00;97777.66;5010233;28;20072;-75
2023/06/27 07:57:56;;;;;;;1999.90;999.90;;;;;;;23.62;100.00;97787.41;4993276;28;20026;-74
2023/06/27 08:00:22;;;;;;;1999.90;999.90;;;;;;;23.90;100.00;97790.47;5010406;28;20113;-74
2023/06/27 08:02:48;;;;;;;1999.90;999.90;;;;;;;24.26;100.00;97789.56;5012129;28;20364;-74
2023/06/27 08:05:13;;;;;;;1999.90;999.90;;;;;;;23.99;100.00;97785.34;5014132;28;20097;-75
2023/06/27 08:07:39;;;;;;;1999.90;999.90;;;;;;;24.06;100.00;97788.16;5014121;28;20486;-77
2023/06/27 08:10:04;;;;;;;1999.90;999.90;;;;;;;23.85;100.00;97786.03;5014811;28;20092;-74
2023/06/27 08:12:30;;;;;;;1999.90;999.90;;;;;;;23.82;100.00;97774.81;5013881;28;20038;-74
2023/06/27 08:14:56;;;;;;;1999.90;999.90;;;;;;;23.82;100.00;97772.00;5013801;28;20441;-75
2023/06/27 08:17:21;;;;;;;1999.90;999.90;;;;;;;23.67;100.00;97778.69;5013810;28;20033;-74
2023/06/27 08:19:46;;;;;;;1999.90;999.90;;;;;;;23.65;100.00;97781.84;5013791;28;20116;-74
2023/06/27 08:22:12;;;;;;;1999.90;999.90;;;;;;;23.68;100.00;97781.06;5013777;28;20037;-75
2023/06/27 08:24:40;;;;;;;1999.90;999.90;;;;;;;23.56;100.00;97772.97;5013561;28;20025;-74
2023/06/27 08:27:05;;;;;;;1999.90;999.90;;;;;;;23.45;100.00;97772.91;4978261;28;21537;-74
2023/06/27 08:29:30;;;;;;;1999.90;999.90;;;;;;;24.32;100.00;97767.63;4974802;28;20121;-76
2023/06/27 08:31:59;;;;;;;1999.90;999.90;;;;;;;24.76;100.00;97778.63;4974742;28;20053;-75
2023/06/27 08:34:25;;;;;;;1999.90;999.90;;;;;;;24.53;100.00;97768.53;4978920;28;20491;-75
2023/06/27 08:36:51;;;;;;;1999.90;999.90;;;;;;;23.38;100.00;97767.19;4979064;28;20058;-77
2023/06/27 08:39:16;;;;;;;1999.90;999.90;;;;;;;23.02;100.00;97759.66;4974858;28;20538;-75
2023/06/27 08:41:42;;;;;;;1999.90;999.90;;;;;;;23.60;100.00;97767.44;4957047;28;20057;-76
2023/06/27 08:44:07;;;;;;;1999.90;999.90;;;;;;;23.64;100.00;97757.09;4974451;28;20836;-76
2023/06/27 08:46:34;;;;;;;1999.90;999.90;;;;;;;23.54;100.00;97757.81;4974265;28;20031;-74
2023/06/27 08:49:02;;;;;;;1999.90;999.90;;;;;;;23.69;100.00;97734.38;4974212;28;20027;-76
2023/06/27 08:51:30;;;;;;;1999.90;999.90;;;;;;;24.19;100.00;97772.72;4974340;28;20026;-75
2023/06/27 08:54:03;;;;;;;1999.90;999.90;;;;;;;25.09;100.00;97780.41;4974019;28;20037;-75
2023/06/27 08:56:31;;;;;;;1999.90;999.90;;;;;;;26.56;100.00;97771.28;4974192;28;20129;-75
2023/06/27 08:59:03;;;;;;;1999.90;999.90;;;;;;;25.95;100.00;97766.16;4974536;28;20036;-75
2023/06/27 09:01:31;;;;;;;1999.90;999.90;;;;;;;25.25;100.00;97770.44;4974076;28;20030;-73
2023/06/27 09:03:57;;;;;;;1999.90;999.90;;;;;;;25.06;100.00;97770.78;4973780;28;20462;-77
2023/06/27 09:06:22;;;;;;;1999.90;999.90;;;;;;;24.61;100.00;97774.97;4973779;28;20123;-74
2023/06/27 09:08:48;;;;;;;1999.90;999.90;;;;;;;24.38;100.00;97772.44;4973984;28;20824;-75
2023/06/27 09:11:15;;;;;;;1999.90;999.90;;;;;;;24.94;100.00;97774.75;4974312;28;20030;-76
2023/06/27 09:13:41;;;;;;;1999.90;999.90;;;;;;;24.49;100.00;97769.72;4972985;28;20027;-75
2023/06/27 09:16:07;;;;;;;1999.90;999.90;;;;;;;24.59;100.00;97759.78;4956355;28;20376;-76
2023/06/27 09:18:35;;;;;;;1999.90;999.90;;;;;;;24.58;100.00;97760.97;4973747;28;20031;-75
2023/06/27 09:21:00;;;;;;;1999.90;999.90;;;;;;;24.05;100.00;97750.25;4973559;28;20635;-75
2023/06/27 09:23:28;;;;;;;1999.90;999.90;;;;;;;24.56;100.00;97771.75;4973419;28;20038;-75
2023/06/27 09:26:13;;;;;;;1999.90;999.90;;;;;;;24.17;100.00;97775.13;4973524;28;20471;-75
2023/06/27 09:28:45;;;;;;;1999.90;999.90;;;;;;;24.78;100.00;97779.84;4973820;28;20026;-75
2023/06/27 09:31:11;;;;;;;1999.90;999.90;;;;;;;24.80;100.00;97779.47;4973494;28;20038;-75
2023/06/27 09:33:36;;;;;;;1999.90;999.90;;;;;;;25.06;100.00;97770.78;4973311;28;20022;-76
2023/06/27 09:36:02;;;;;;;1999.90;999.90;;;;;;;25.03;100.00;97765.97;4973175;28;20061;-75
2023/06/27 09:38:32;;;;;;;1999.90;999.90;;;;;;;24.94;100.00;97766.34;4973341;28;20030;-75
2023/06/27 09:41:07;;;;;;;1999.90;999.90;;;;;;;24.95;100.00;97764.34;4973319;28;20472;-75
2023/06/27 09:43:36;;;;;;;1999.90;999.90;;;;;;;25.19;100.00;97774.03;4981058;28;20125;-76
2023/06/27 09:46:03;;;;;;;1999.90;999.90;;;;;;;25.12;100.00;97766.44;5007398;28;20036;-74
2023/06/27 09:48:29;;;;;;;1999.90;999.90;;;;;;;25.42;100.00;97761.28;5008960;28;20117;-75
2023/06/27 09:51:03;;;;;;;1999.90;999.90;;;;;;;25.31;100.00;97768.06;5012147;28;20121;-75
2023/06/27 09:53:30;;;;;;;1999.90;999.90;;;;;;;25.47;100.00;97760.88;5012477;28;20026;-73
2023/06/27 09:55:59;;;;;;;1999.90;999.90;;;;;;;25.33;100.00;97763.66;5015172;28;20072;-77
2023/06/27 09:58:28;;;;;;;1999.90;999.90;;;;;;;25.14;100.00;97754.81;5011836;28;20057;-74
2023/06/27 10:00:55;;;;;;;1999.90;999.90;;;;;;;25.00;100.00;97745.16;5003561;28;20030;-75
2023/06/27 10:03:21;;;;;;;1999.90;999.90;;;;;;;26.22;100.00;97764.53;5002818;28;20044;-76
2023/06/27 10:05:46;;;;;;;1999.90;999.90;;;;;;;26.86;100.00;97776.44;5002812;28;20471;-75
2023/06/27 10:08:12;;;;;;;1999.90;999.90;;;;;;;27.26;100.00;97772.22;5001713;28;20026;-74
2023/06/27 10:10:37;;;;;;;1999.90;999.90;;;;;;;27.06;100.00;97773.94;5000822;28;20040;-75
2023/06/27 10:13:03;;;;;;;1999.90;999.90;;;;;;;26.87;100.00;97774.44;5001678;28;20030;-74
2023/06/27 10:15:29;;;;;;;1999.90;999.90;;;;;;;26.37;100.00;97766.13;5002017;28;20462;-75
2023/06/27 10:17:55;;;;;;;1999.90;999.90;;;;;;;26.50;100.00;97764.47;5003674;28;20034;-76
2023/06/27 10:20:21;;;;;;;1999.90;999.90;;;;;;;26.06;100.00;97766.94;5002160;28;20470;-75
2023/06/27 10:22:47;;;;;;;1999.90;999.90;;;;;;;25.85;100.00;97761.34;5001386;28;20120;-74
2023/06/27 10:25:13;;;;;;;1999.90;999.90;;;;;;;25.67;100.00;97771.75;4999846;28;20049;-73
2023/06/27 10:27:40;;;;;;;1999.90;999.90;;;;;;;25.71;100.00;97772.56;5001459;28;20029;-73
2023/06/27 10:30:12;;;;;;;1999.90;999.90;;;;;;;25.29;100.00;97757.25;5002282;28;20474;-72
2023/06/27 10:32:44;;;;;;;1999.90;999.90;;;;;;;25.26;100.00;97762.84;4997388;28;20026;-72
2023/06/27 10:35:26;;;;;;;1999.90;999.90;;;;;;;24.97;100.00;97751.56;5000414;28;20053;-75
2023/06/27 10:38:09;;;;;;;1999.90;999.90;;;;;;;24.84;100.00;97763.53;5001053;28;20129;-72
2023/06/27 10:40:56;;;;;;;1999.90;999.90;;;;;;;24.87;100.00;97754.34;5001691;28;20040;-72
2023/06/27 10:43:42;;;;;;;1999.90;999.90;;;;;;;24.89;100.00;97757.53;4997284;28;20069;-72